Portada
METAR-TAF:

METAR-TAF

Aeroports :

Damasc, Síria

latitud: 33-25N, longitud: 036-31E, altitud: 608 m

Observació

L'informe es va fer fa 33 minuts, a les 10:00 UTC
Vent 10 kt del Sud-Oest
Temperatura 19°C
Humitat 32%
Pressió 1014 hPa
Visibilitat 10 km o més
sense núvols per sota de 1500 mi sense presència de cumulonimbus.

METAR: OSDI 021000Z 23010KT CAVOK 19/02 Q1014

Hora: 13:33 (10:33 UTC)

Pronòstic

L'informe es va fer fa 5 hores i 33 minuts, a les 05:00 UTC
Pronòstic vàlid del 02 a les 06 UTC al 03 a les 12 UTC
Vent 12 kt del Sud-Oest
Visibilitat: 8000 m
Escasses núvols a una alçada de 3000 ft
Temporalment
l' 02 a les 09 UTC al 02 a les 18 UTC
Vent 15 kt del Oest/Sud-Oest amb ràfegues de 25 kt

TAF: OSDI 020500Z 0206/0312 22012KT 8000 FEW030 TEMPO 0209/0218 24015G25KT

Observacions i pronòstics meteorològics de més de 4000 aeroports (METAR i TAF).

Les estacions disponibles són els punts grocs i vermells al mapa.

Posi el ratolí al punt desitjat per veure el nom de l'estació.

Feu clic per veure les observacions i els pronòstics meteorològics.

Per canviar el mapa: feu clic els botons verds amb una creu de color negre per apropar; al botó verd amb un guió per allunyar la imatge; o en les fletxes verdes per a mapes adjacents.


METAR-TAF: